Time;durP1;ratioP1;P1;durP2;ratioP2;P2;SDS_P1;SDS_P2;PMS_P1;PMS_P2;Temp;Humidity;BMP_temperature;BMP_pressure;BME280_temperature;BME280_humidity;BME280_pressure;Samples;Min_cycle;Max_cycle;Signal;HPM_P1;HPM_P2
2022/11/09 00:02:05;;;;;;;5.70;1.60;;;11.80;99.90;;;;;;4982286;28;20046;-79
2022/11/09 00:04:31;;;;;;;7.13;1.70;;;11.80;99.90;;;;;;5014257;28;20183;-79
2022/11/09 00:06:57;;;;;;;6.70;1.60;;;11.80;99.90;;;;;;5014832;28;20054;-79
2022/11/09 00:09:22;;;;;;;6.80;1.43;;;11.80;99.90;;;;;;5015229;28;20438;-79
2022/11/09 00:11:48;;;;;;;7.37;1.50;;;11.80;99.90;;;;;;4998126;28;20038;-79
2022/11/09 00:14:15;;;;;;;9.03;1.50;;;11.80;99.90;;;;;;4981852;28;20540;-79
2022/11/09 00:16:41;;;;;;;7.30;1.60;;;11.80;99.90;;;;;;4981750;28;20053;-79
2022/11/09 00:19:07;;;;;;;7.93;1.90;;;11.80;99.90;;;;;;5014809;28;20656;-79
2022/11/09 00:21:33;;;;;;;5.50;1.50;;;11.80;99.90;;;;;;4998029;28;20285;-79
2022/11/09 00:23:58;;;;;;;8.13;1.57;;;11.80;99.90;;;;;;4981767;28;20077;-78
2022/11/09 00:26:25;;;;;;;7.90;1.73;;;11.80;99.90;;;;;;4997806;28;20045;-79
2022/11/09 00:28:51;;;;;;;8.60;2.33;;;11.80;99.90;;;;;;4998524;28;20053;-79
2022/11/09 00:31:19;;;;;;;7.03;1.70;;;11.80;99.90;;;;;;5013733;28;20300;-79
2022/11/09 00:33:54;;;;;;;9.50;1.93;;;11.80;99.90;;;;;;4997914;28;20319;-79
2022/11/09 00:36:21;;;;;;;6.63;1.65;;;11.90;99.90;;;;;;5014250;28;20327;-79
2022/11/09 00:38:53;;;;;;;5.63;1.80;;;11.80;99.90;;;;;;5013968;28;20057;-79
2022/11/09 00:41:19;;;;;;;8.13;1.80;;;11.90;99.90;;;;;;4997825;28;20292;-79
2022/11/09 00:43:45;;;;;;;5.10;1.50;;;11.90;99.90;;;;;;5013809;28;20280;-79
2022/11/09 00:46:12;;;;;;;5.73;2.10;;;11.80;99.90;;;;;;5013805;28;20645;-80
2022/11/09 00:48:38;;;;;;;8.03;2.20;;;11.80;99.90;;;;;;5013989;28;20285;-79
2022/11/09 00:51:04;;;;;;;7.73;2.30;;;11.80;99.90;;;;;;4965141;28;20297;-79
2022/11/09 00:53:30;;;;;;;7.63;2.40;;;11.80;99.90;;;;;;4997115;28;20065;-79
2022/11/09 00:56:00;;;;;;;9.80;3.03;;;11.80;99.90;;;;;;5013366;28;20344;-79
2022/11/09 00:58:27;;;;;;;11.73;3.07;;;11.80;99.90;;;;;;4997138;28;20289;-79
2022/11/09 01:00:54;;;;;;;8.40;2.53;;;11.80;99.90;;;;;;5013591;28;20285;-79
2022/11/09 01:03:20;;;;;;;10.80;3.80;;;11.90;99.90;;;;;;4997198;28;20375;-80
2022/11/09 01:05:46;;;;;;;8.87;3.03;;;11.90;99.90;;;;;;5013666;28;20788;-79
2022/11/09 01:08:12;;;;;;;8.50;3.10;;;11.90;99.90;;;;;;5014183;28;20303;-79
2022/11/09 01:10:42;;;;;;;10.90;3.50;;;11.90;99.90;;;;;;4997006;28;20136;-78
2022/11/09 01:13:10;;;;;;;10.43;3.67;;;12.00;99.90;;;;;;4996781;28;20049;-78
2022/11/09 01:15:47;;;;;;;9.27;3.43;;;12.00;99.90;;;;;;4997429;28;20340;-79
2022/11/09 01:18:14;;;;;;;12.20;3.53;;;12.10;99.90;;;;;;4996593;28;20331;-81
2022/11/09 01:20:41;;;;;;;10.10;3.37;;;12.10;99.90;;;;;;5030440;28;20284;-79
2022/11/09 01:23:07;;;;;;;12.70;3.77;;;12.10;99.90;;;;;;4997145;28;20324;-79
2022/11/09 01:25:34;;;;;;;10.97;3.60;;;12.20;99.90;;;;;;5013192;28;20285;-79
2022/11/09 01:28:00;;;;;;;13.43;3.50;;;12.20;99.90;;;;;;5012935;28;20788;-79
2022/11/09 01:30:26;;;;;;;10.00;3.13;;;12.20;99.90;;;;;;5012844;28;20343;-80
2022/11/09 01:32:52;;;;;;;12.13;3.03;;;12.20;99.90;;;;;;5012443;28;20285;-80
2022/11/09 01:35:18;;;;;;;8.17;2.93;;;12.20;99.90;;;;;;4996523;28;20391;-80
2022/11/09 01:37:44;;;;;;;7.33;2.80;;;12.20;99.90;;;;;;4980593;28;20045;-79
2022/11/09 01:40:10;;;;;;;14.20;2.93;;;12.20;99.90;;;;;;5014084;28;20049;-80
2022/11/09 01:42:37;;;;;;;8.40;2.20;;;12.20;99.90;;;;;;5013481;28;20041;-79
2022/11/09 01:45:18;;;;;;;11.57;2.53;;;12.20;99.90;;;;;;4996595;28;20285;-79
2022/11/09 01:47:51;;;;;;;13.10;3.20;;;12.20;99.90;;;;;;5013734;28;20289;-79
2022/11/09 01:50:22;;;;;;;9.77;3.10;;;12.10;99.90;;;;;;5013691;28;20625;-79
2022/11/09 01:52:48;;;;;;;11.40;3.70;;;12.10;99.90;;;;;;5029365;28;20293;-79
2022/11/09 01:55:18;;;;;;;13.57;3.27;;;12.10;99.90;;;;;;4996287;28;20391;-79
2022/11/09 01:57:50;;;;;;;11.60;2.97;;;12.10;99.90;;;;;;4996456;28;20375;-78
2022/11/09 02:00:16;;;;;;;10.57;3.63;;;12.10;99.90;;;;;;5013654;28;20606;-79
2022/11/09 02:03:11;;;;;;;11.37;3.20;;;12.00;99.90;;;;;;4996171;28;20776;-78
2022/11/09 02:05:39;;;;;;;9.43;3.40;;;12.00;99.90;;;;;;4994855;28;20284;-78
2022/11/09 02:08:06;;;;;;;16.07;3.90;;;12.00;99.90;;;;;;5012685;28;20289;-78
2022/11/09 02:10:38;;;;;;;10.27;3.90;;;11.90;99.90;;;;;;4996344;28;20340;-78
2022/11/09 02:13:05;;;;;;;11.70;3.47;;;11.90;99.90;;;;;;5013545;28;20293;-78
2022/11/09 02:15:31;;;;;;;13.30;3.83;;;11.80;99.90;;;;;;5012379;28;20350;-78
2022/11/09 02:17:57;;;;;;;13.17;3.93;;;11.80;99.90;;;;;;4996378;28;20746;-78
2022/11/09 02:20:24;;;;;;;11.87;3.27;;;11.80;99.90;;;;;;5012299;28;20185;-78
2022/11/09 02:22:50;;;;;;;13.03;3.67;;;11.80;99.90;;;;;;5014119;28;20339;-78
2022/11/09 02:25:16;;;;;;;10.67;3.23;;;11.80;99.90;;;;;;4980128;28;20285;-78
2022/11/09 02:27:43;;;;;;;11.40;3.40;;;11.70;99.90;;;;;;5028672;28;20776;-78
2022/11/09 02:30:10;;;;;;;13.90;3.83;;;11.70;99.90;;;;;;4996499;28;20285;-78
2022/11/09 02:32:36;;;;;;;12.40;3.27;;;11.70;99.90;;;;;;4995987;28;20285;-78
2022/11/09 02:35:02;;;;;;;13.00;3.17;;;11.70;99.90;;;;;;5012351;28;20388;-79
2022/11/09 02:37:38;;;;;;;11.30;3.23;;;11.70;99.90;;;;;;4995765;28;20100;-78
2022/11/09 02:40:09;;;;;;;11.63;3.03;;;11.70;99.90;;;;;;5029233;28;20359;-78
2022/11/09 02:42:35;;;;;;;10.30;3.67;;;11.60;99.90;;;;;;4996506;28;20054;-78
2022/11/09 02:45:01;;;;;;;14.87;3.70;;;11.60;99.90;;;;;;4983718;28;20340;-78
2022/11/09 02:47:27;;;;;;;10.43;2.83;;;11.60;99.90;;;;;;4999695;28;20042;-78
2022/11/09 02:49:52;;;;;;;13.93;4.23;;;11.60;99.90;;;;;;4999701;28;20078;-78
2022/11/09 02:52:18;;;;;;;10.53;3.27;;;11.60;99.90;;;;;;4999113;28;20097;-78
2022/11/09 02:54:44;;;;;;;16.93;3.83;;;11.60;99.90;;;;;;5015604;28;20136;-78
2022/11/09 02:57:10;;;;;;;8.70;3.13;;;11.50;99.90;;;;;;4999528;28;20136;-78
2022/11/09 02:59:36;;;;;;;9.83;2.67;;;11.50;99.90;;;;;;5015736;28;20069;-78
2022/11/09 03:02:01;;;;;;;12.73;2.60;;;11.50;99.90;;;;;;5015737;28;20129;-78
2022/11/09 03:04:27;;;;;;;10.07;3.23;;;11.50;99.90;;;;;;4999383;28;20188;-78
2022/11/09 03:06:52;;;;;;;8.90;2.53;;;11.50;99.90;;;;;;4999396;28;20448;-78
2022/11/09 03:09:18;;;;;;;13.17;3.20;;;11.50;99.90;;;;;;4999579;28;20045;-78
2022/11/09 03:11:44;;;;;;;11.43;3.10;;;11.50;99.90;;;;;;5015586;28;20050;-78
2022/11/09 03:14:10;;;;;;;12.70;3.27;;;11.50;99.90;;;;;;5015486;28;20052;-78
2022/11/09 03:16:37;;;;;;;11.20;3.10;;;11.50;99.90;;;;;;5015478;28;20473;-78
2022/11/09 03:19:03;;;;;;;10.93;3.17;;;11.50;99.90;;;;;;4999370;28;20288;-77
2022/11/09 03:21:29;;;;;;;10.77;3.40;;;11.40;99.90;;;;;;5031961;28;20421;-79
2022/11/09 03:23:55;;;;;;;14.63;3.03;;;11.40;99.90;;;;;;4999075;28;20301;-78
2022/11/09 03:26:21;;;;;;;10.67;2.97;;;11.40;99.90;;;;;;5015285;28;20112;-79
2022/11/09 03:28:47;;;;;;;11.60;2.53;;;11.50;99.90;;;;;;5015262;28;20045;-78
2022/11/09 03:31:13;;;;;;;13.23;3.13;;;11.40;99.90;;;;;;5016012;28;20725;-79
2022/11/09 03:33:39;;;;;;;11.77;2.77;;;11.40;99.90;;;;;;5015202;28;20037;-79
2022/11/09 03:36:05;;;;;;;9.20;2.97;;;11.40;99.90;;;;;;4998597;28;20319;-79
2022/11/09 03:38:31;;;;;;;12.40;3.93;;;11.40;99.90;;;;;;4999477;28;20054;-79
2022/11/09 03:40:59;;;;;;;15.70;3.67;;;11.40;99.90;;;;;;4998463;28;20292;-79
2022/11/09 03:43:25;;;;;;;12.73;3.13;;;11.40;99.90;;;;;;5014710;28;20062;-78
2022/11/09 03:45:50;;;;;;;15.90;2.87;;;11.40;99.90;;;;;;5015713;28;20292;-79
2022/11/09 03:48:16;;;;;;;11.20;2.67;;;11.30;99.90;;;;;;5014887;28;20061;-79
2022/11/09 03:50:42;;;;;;;12.70;2.83;;;11.40;99.90;;;;;;4982652;28;20053;-79
2022/11/09 03:53:09;;;;;;;15.83;3.40;;;11.30;99.90;;;;;;4998968;28;20470;-78
2022/11/09 03:55:36;;;;;;;13.57;2.93;;;11.40;99.90;;;;;;4997529;28;20048;-79
2022/11/09 03:58:03;;;;;;;13.17;2.53;;;11.30;99.90;;;;;;4998610;28;20392;-79
2022/11/09 04:00:29;;;;;;;13.53;3.07;;;11.30;99.90;;;;;;4998319;28;20378;-79
2022/11/09 04:02:54;;;;;;;13.93;2.80;;;11.30;99.90;;;;;;5014582;28;20308;-79
2022/11/09 04:05:20;;;;;;;13.47;2.80;;;11.30;99.90;;;;;;4998310;28;20744;-79
2022/11/09 04:07:54;;;;;;;14.67;2.70;;;11.30;99.90;;;;;;5015302;28;20398;-79
2022/11/09 04:10:21;;;;;;;13.87;3.00;;;11.40;99.90;;;;;;4998517;28;20363;-79
2022/11/09 04:12:47;;;;;;;15.80;3.20;;;11.30;99.90;;;;;;5014111;28;20285;-79
2022/11/09 04:15:13;;;;;;;10.27;2.87;;;11.30;99.90;;;;;;5014443;28;20304;-79
2022/11/09 04:17:38;;;;;;;12.97;2.93;;;11.40;99.90;;;;;;5014330;28;20343;-79
2022/11/09 04:20:06;;;;;;;12.70;3.27;;;11.40;99.90;;;;;;5014318;28;20046;-79
2022/11/09 04:22:32;;;;;;;13.97;2.90;;;11.40;99.90;;;;;;4998154;28;20081;-79
2022/11/09 04:24:58;;;;;;;15.20;4.03;;;11.40;99.90;;;;;;4982476;28;20299;-79
2022/11/09 04:27:23;;;;;;;12.97;3.10;;;11.40;99.90;;;;;;4997943;28;20092;-79
2022/11/09 04:29:49;;;;;;;11.80;2.53;;;11.40;99.90;;;;;;5013889;28;20072;-79
2022/11/09 04:32:15;;;;;;;16.23;3.20;;;11.40;99.90;;;;;;4998059;28;20046;-79
2022/11/09 04:34:40;;;;;;;13.73;3.20;;;11.40;99.90;;;;;;4981369;28;20394;-80
2022/11/09 04:37:07;;;;;;;14.67;2.90;;;11.40;99.90;;;;;;5014850;28;20045;-79
2022/11/09 04:39:33;;;;;;;11.20;3.17;;;11.40;99.90;;;;;;4981521;28;20046;-79
2022/11/09 04:41:59;;;;;;;15.30;3.57;;;11.40;99.90;;;;;;5013817;28;20304;-80
2022/11/09 04:44:25;;;;;;;14.07;2.80;;;11.40;99.90;;;;;;5014937;28;20208;-79
2022/11/09 04:46:51;;;;;;;15.23;3.00;;;11.40;99.90;;;;;;4965247;28;20397;-80
2022/11/09 04:49:16;;;;;;;9.73;2.50;;;11.50;99.90;;;;;;5013784;28;20046;-80
2022/11/09 04:51:42;;;;;;;16.73;2.80;;;11.40;99.90;;;;;;4997623;28;20132;-80
2022/11/09 04:54:08;;;;;;;13.13;2.73;;;11.50;99.90;;;;;;4980801;28;20061;-80
2022/11/09 04:56:33;;;;;;;13.17;2.93;;;11.50;99.90;;;;;;4997344;28;20046;-80
2022/11/09 04:58:59;;;;;;;13.53;4.17;;;11.50;99.90;;;;;;5013862;28;20046;-80
2022/11/09 05:01:25;;;;;;;13.97;2.70;;;11.40;99.90;;;;;;5013623;28;20524;-80
2022/11/09 05:03:50;;;;;;;15.77;2.60;;;11.40;99.90;;;;;;4997162;28;20137;-80
2022/11/09 05:06:31;;;;;;;12.03;2.70;;;11.40;99.90;;;;;;4997086;28;20046;-80
2022/11/09 05:08:58;;;;;;;11.93;3.30;;;11.40;99.90;;;;;;5014300;28;20053;-79
2022/11/09 05:11:24;;;;;;;13.10;2.63;;;11.40;99.90;;;;;;5029641;28;20322;-79
2022/11/09 05:13:51;;;;;;;15.37;3.50;;;11.40;99.90;;;;;;5013384;28;20320;-79
2022/11/09 05:16:17;;;;;;;16.03;3.43;;;11.40;99.90;;;;;;5013770;28;20370;-80
2022/11/09 05:18:43;;;;;;;15.10;3.30;;;11.40;99.90;;;;;;4996623;28;20876;-80
2022/11/09 05:21:09;;;;;;;14.13;3.20;;;11.40;99.90;;;;;;4996930;28;20328;-79
2022/11/09 05:26:19;;;;;;;14.47;3.27;;;11.50;99.90;;;;;;5013490;28;20057;-79
2022/11/09 05:28:44;;;;;;;9.17;2.80;;;11.50;99.90;;;;;;5013146;28;20871;-79
2022/11/09 05:31:10;;;;;;;9.13;2.83;;;11.50;99.90;;;;;;5013927;28;20100;-80
2022/11/09 05:33:36;;;;;;;11.83;3.23;;;11.50;99.90;;;;;;4996951;28;20045;-80
2022/11/09 05:36:01;;;;;;;15.07;3.50;;;11.50;99.90;;;;;;4981073;28;20111;-79
2022/11/09 05:38:27;;;;;;;11.20;2.53;;;11.50;99.90;;;;;;4997015;28;20056;-78
2022/11/09 05:40:53;;;;;;;12.93;3.33;;;11.50;99.90;;;;;;4980182;28;20383;-79
2022/11/09 05:43:19;;;;;;;11.90;2.80;;;11.50;99.90;;;;;;4996598;28;20081;-78
2022/11/09 05:45:46;;;;;;;12.03;3.20;;;11.50;99.90;;;;;;5012904;28;20285;-78
2022/11/09 05:48:14;;;;;;;12.93;3.03;;;11.40;99.90;;;;;;5012365;28;20808;-78
2022/11/09 05:50:41;;;;;;;14.13;2.93;;;11.40;99.90;;;;;;5012565;28;20292;-78
2022/11/09 05:53:07;;;;;;;10.17;2.93;;;11.40;99.90;;;;;;5012867;28;20297;-79
2022/11/09 05:55:33;;;;;;;11.17;2.63;;;11.40;99.90;;;;;;4996657;28;20784;-78
2022/11/09 05:57:58;;;;;;;12.97;3.43;;;11.40;99.90;;;;;;5012832;28;20092;-79
2022/11/09 06:00:25;;;;;;;15.23;3.70;;;11.30;99.90;;;;;;5012814;28;20284;-79
2022/11/09 06:02:51;;;;;;;15.13;2.80;;;11.30;99.90;;;;;;5013783;28;20065;-79
2022/11/09 06:05:19;;;;;;;13.43;3.07;;;11.30;99.90;;;;;;4997196;28;20293;-79
2022/11/09 06:07:45;;;;;;;14.60;3.37;;;11.30;99.90;;;;;;5012668;28;20050;-82
2022/11/09 06:10:11;;;;;;;12.23;3.23;;;11.30;99.90;;;;;;4980340;28;20292;-78
2022/11/09 06:12:37;;;;;;;12.57;2.80;;;11.20;99.90;;;;;;4996340;28;20320;-78
2022/11/09 06:15:04;;;;;;;12.50;2.40;;;11.20;99.90;;;;;;4980049;28;20410;-78
2022/11/09 06:17:30;;;;;;;10.53;2.70;;;11.20;99.90;;;;;;5013034;28;20425;-78
2022/11/09 06:19:55;;;;;;;9.83;3.00;;;11.20;99.90;;;;;;5000161;28;20289;-79
2022/11/09 06:22:21;;;;;;;10.30;2.70;;;11.20;99.90;;;;;;5016219;28;20081;-79
2022/11/09 06:24:47;;;;;;;10.60;2.43;;;11.20;99.90;;;;;;5016459;28;20057;-79
2022/11/09 06:27:14;;;;;;;11.43;2.53;;;11.10;99.90;;;;;;5000107;28;20057;-79
2022/11/09 06:29:39;;;;;;;14.00;2.67;;;11.10;99.90;;;;;;5017093;28;20038;-79
2022/11/09 06:32:05;;;;;;;11.43;3.20;;;11.10;99.90;;;;;;5015978;28;20640;-79
2022/11/09 06:34:31;;;;;;;12.00;3.13;;;11.10;99.90;;;;;;5016182;28;20041;-79
2022/11/09 06:36:56;;;;;;;15.73;2.87;;;11.10;99.90;;;;;;5000188;28;20060;-78
2022/11/09 06:39:22;;;;;;;13.57;3.23;;;11.10;99.90;;;;;;4999882;28;20049;-79
2022/11/09 06:41:48;;;;;;;12.77;3.43;;;11.10;99.90;;;;;;4983840;28;20054;-84
2022/11/09 06:44:14;;;;;;;11.00;2.83;;;11.00;99.90;;;;;;5016650;28;20458;-79
2022/11/09 06:46:40;;;;;;;14.90;3.23;;;11.00;99.90;;;;;;4983587;28;20045;-79
2022/11/09 06:49:05;;;;;;;13.47;3.10;;;11.00;99.90;;;;;;5016230;28;20050;-79
2022/11/09 06:51:31;;;;;;;14.70;3.17;;;11.10;99.90;;;;;;5016039;28;20046;-78
2022/11/09 06:53:57;;;;;;;10.60;2.70;;;11.10;99.90;;;;;;4998994;28;20189;-78
2022/11/09 06:56:23;;;;;;;9.90;2.40;;;11.10;99.90;;;;;;4982809;28;20096;-79
2022/11/09 06:58:49;;;;;;;9.00;2.40;;;11.00;99.90;;;;;;5015830;28;20331;-78
2022/11/09 07:01:17;;;;;;;11.73;3.60;;;11.00;99.90;;;;;;5015797;28;20042;-78
2022/11/09 07:03:42;;;;;;;13.50;2.63;;;11.00;99.90;;;;;;5016011;28;20107;-78
2022/11/09 07:06:10;;;;;;;13.70;2.93;;;11.00;99.90;;;;;;5016642;28;20364;-78
2022/11/09 07:08:37;;;;;;;14.60;3.20;;;11.00;99.90;;;;;;5015622;28;20054;-78
2022/11/09 07:11:21;;;;;;;10.53;2.57;;;11.00;99.90;;;;;;5016341;28;20296;-79
2022/11/09 07:13:48;;;;;;;11.97;2.40;;;11.00;99.90;;;;;;5016218;28;20281;-78
2022/11/09 07:16:16;;;;;;;11.43;2.60;;;11.00;99.90;;;;;;5015485;28;20307;-79
2022/11/09 07:18:44;;;;;;;9.93;2.57;;;11.00;99.90;;;;;;5015516;28;20379;-78
2022/11/09 07:21:09;;;;;;;11.97;3.13;;;11.00;99.90;;;;;;4999816;28;20285;-79
2022/11/09 07:23:35;;;;;;;14.53;2.90;;;11.00;99.90;;;;;;5015659;28;20293;-79
2022/11/09 07:26:01;;;;;;;12.53;2.57;;;11.00;99.90;;;;;;4982929;28;20089;-79
2022/11/09 07:28:27;;;;;;;16.10;3.23;;;10.90;99.90;;;;;;4998868;28;20112;-78
2022/11/09 07:30:52;;;;;;;11.77;2.40;;;11.00;99.90;;;;;;4998687;28;20052;-79
2022/11/09 07:33:21;;;;;;;16.87;3.23;;;11.00;99.90;;;;;;4999685;28;20423;-79
2022/11/09 07:35:46;;;;;;;12.30;2.93;;;11.00;99.90;;;;;;5014935;28;20042;-79
2022/11/09 07:38:14;;;;;;;16.27;2.83;;;11.00;99.90;;;;;;5016041;28;20308;-79
2022/11/09 07:40:40;;;;;;;10.90;2.60;;;11.00;99.90;;;;;;4999523;28;20382;-79
2022/11/09 07:43:06;;;;;;;15.10;3.20;;;11.00;99.90;;;;;;5014978;28;20288;-79
2022/11/09 07:45:34;;;;;;;10.93;2.50;;;11.00;99.90;;;;;;5015282;28;20046;-79
2022/11/09 07:48:03;;;;;;;12.03;2.90;;;11.00;99.90;;;;;;5014869;28;20334;-79
2022/11/09 07:50:30;;;;;;;11.43;2.63;;;11.10;99.90;;;;;;5015717;28;20305;-78
2022/11/09 07:52:58;;;;;;;13.03;2.63;;;11.10;99.90;;;;;;5015612;28;20665;-82
2022/11/09 07:55:24;;;;;;;15.63;3.30;;;11.10;99.90;;;;;;5014648;28;20305;-78
2022/11/09 07:57:57;;;;;;;18.97;3.47;;;11.10;99.90;;;;;;5014760;28;20300;-78
2022/11/09 08:00:24;;;;;;;15.40;3.23;;;11.10;99.90;;;;;;4998367;28;20289;-78
2022/11/09 08:02:50;;;;;;;13.97;3.20;;;11.20;99.90;;;;;;5015156;28;20649;-78
2022/11/09 08:05:16;;;;;;;12.40;3.33;;;11.20;99.90;;;;;;4981794;28;20293;-78
2022/11/09 08:07:41;;;;;;;12.77;3.10;;;11.20;99.90;;;;;;5014609;28;20046;-77
2022/11/09 08:10:08;;;;;;;15.23;3.03;;;11.20;99.90;;;;;;5014579;28;20478;-80
2022/11/09 08:12:33;;;;;;;11.37;2.60;;;11.20;99.90;;;;;;4998282;28;20394;-79
2022/11/09 08:14:59;;;;;;;15.60;2.50;;;11.20;99.90;;;;;;5015040;28;20395;-80
2022/11/09 08:17:25;;;;;;;13.50;2.53;;;11.30;99.90;;;;;;5014119;28;20161;-76
2022/11/09 08:19:50;;;;;;;18.67;3.10;;;11.30;99.90;;;;;;4998065;28;20045;-77
2022/11/09 08:22:16;;;;;;;12.57;2.80;;;11.30;99.90;;;;;;5015233;28;20128;-77
2022/11/09 08:24:41;;;;;;;15.50;2.73;;;11.40;99.90;;;;;;4997727;28;20050;-79
2022/11/09 08:27:07;;;;;;;15.27;2.80;;;11.40;99.90;;;;;;5014175;28;20060;-80
2022/11/09 08:29:33;;;;;;;9.97;2.63;;;11.40;99.90;;;;;;5013926;28;20046;-75
2022/11/09 08:31:58;;;;;;;16.63;2.87;;;11.50;99.90;;;;;;5015122;28;20362;-75
2022/11/09 08:34:24;;;;;;;12.23;2.97;;;11.60;99.90;;;;;;5014889;28;20048;-75
2022/11/09 08:36:50;;;;;;;14.67;2.53;;;11.60;99.90;;;;;;4998074;28;20052;-77
2022/11/09 08:39:15;;;;;;;12.00;2.90;;;11.60;99.90;;;;;;5014241;28;20124;-76
2022/11/09 08:41:41;;;;;;;14.87;3.20;;;11.60;99.90;;;;;;5014575;28;20054;-76
2022/11/09 08:44:07;;;;;;;11.40;2.47;;;11.60;99.90;;;;;;5014630;28;20053;-76
2022/11/09 08:46:32;;;;;;;15.70;3.30;;;11.70;99.90;;;;;;5013902;28;20153;-76
2022/11/09 08:48:58;;;;;;;11.43;2.40;;;11.70;99.90;;;;;;5013634;28;20050;-76
2022/11/09 08:51:24;;;;;;;19.73;3.23;;;11.70;99.90;;;;;;4997406;28;20077;-76
2022/11/09 08:53:50;;;;;;;12.13;3.33;;;11.80;99.90;;;;;;5013378;28;20076;-77
2022/11/09 08:56:17;;;;;;;14.10;4.00;;;11.80;99.90;;;;;;5014299;28;20482;-77
2022/11/09 08:58:44;;;;;;;15.23;2.90;;;11.80;99.90;;;;;;5030930;28;20290;-75
2022/11/09 09:01:10;;;;;;;13.47;2.50;;;11.80;99.90;;;;;;5013557;28;20292;-80
2022/11/09 09:03:36;;;;;;;10.47;4.17;;;11.90;99.90;;;;;;5015069;28;20284;-76
2022/11/09 09:06:06;;;;;;;15.70;3.47;;;11.90;99.90;;;;;;5014519;28;20285;-76
2022/11/09 09:08:32;;;;;;;10.77;2.73;;;11.90;99.90;;;;;;5014477;28;20054;-76
2022/11/09 09:11:02;;;;;;;10.57;2.63;;;12.00;99.90;;;;;;5014433;28;20290;-78
2022/11/09 09:13:28;;;;;;;15.53;3.43;;;12.00;99.90;;;;;;5013342;28;20284;-78
2022/11/09 09:15:53;;;;;;;17.47;3.20;;;12.10;99.90;;;;;;5014539;28;20370;-77
2022/11/09 09:18:19;;;;;;;13.33;2.80;;;12.10;99.90;;;;;;5014795;28;20281;-79
2022/11/09 09:20:45;;;;;;;11.33;2.73;;;12.20;99.90;;;;;;5013291;28;20057;-78
2022/11/09 09:23:13;;;;;;;15.70;2.97;;;12.20;99.90;;;;;;5014244;28;20092;-78
2022/11/09 09:25:38;;;;;;;14.27;2.97;;;12.20;99.90;;;;;;5014191;28;20053;-75
2022/11/09 09:28:04;;;;;;;12.17;3.33;;;12.20;99.90;;;;;;5012798;28;20927;-76
2022/11/09 09:30:30;;;;;;;11.00;2.80;;;12.20;99.90;;;;;;5014161;28;20061;-79
2022/11/09 09:32:59;;;;;;;12.43;2.37;;;12.30;99.90;;;;;;5013165;28;20055;-76
2022/11/09 09:35:27;;;;;;;14.27;3.13;;;12.30;99.90;;;;;;5012944;28;20077;-78
2022/11/09 09:37:53;;;;;;;10.77;3.00;;;12.30;99.90;;;;;;5014049;28;20339;-78
2022/11/09 09:40:23;;;;;;;12.17;2.60;;;12.30;99.90;;;;;;5013988;28;20277;-84
2022/11/09 09:42:51;;;;;;;11.63;2.57;;;12.30;99.90;;;;;;4996843;28;20328;-85
2022/11/09 09:45:24;;;;;;;12.63;3.20;;;12.40;99.90;;;;;;5012559;28;20328;-83
2022/11/09 09:48:14;;;;;;;14.30;3.73;;;12.40;99.90;;;;;;5014403;28;20582;-83
2022/11/09 09:50:47;;;;;;;13.10;3.00;;;12.50;99.90;;;;;;5012841;28;20862;-86
2022/11/09 09:53:21;;;;;;;12.00;2.57;;;12.50;99.90;;;;;;5012896;28;20285;-83
2022/11/09 09:55:53;;;;;;;12.33;3.00;;;12.50;99.90;;;;;;5013798;28;20296;-83
2022/11/09 09:58:24;;;;;;;12.53;2.80;;;12.50;99.90;;;;;;4996759;28;20296;-84
2022/11/09 10:00:54;;;;;;;13.50;4.20;;;12.50;99.90;;;;;;5029319;28;20296;-85
2022/11/09 10:03:20;;;;;;;16.13;3.20;;;12.50;99.90;;;;;;5012511;28;20375;-85
2022/11/09 10:06:24;;;;;;;15.97;3.70;;;12.60;99.90;;;;;;5012805;28;20328;-84
2022/11/09 10:09:20;;;;;;;13.47;3.07;;;12.60;99.90;;;;;;5002252;28;20303;-84
2022/11/09 10:11:45;;;;;;;12.00;3.55;;;12.60;99.90;;;;;;5012637;28;20288;-85
2022/11/09 10:14:29;;;;;;;17.03;3.77;;;12.60;99.90;;;;;;5012721;28;20054;-83
2022/11/09 10:17:22;;;;;;;15.30;3.67;;;12.70;99.90;;;;;;5013901;28;20054;-83
2022/11/09 10:20:07;;;;;;;16.00;3.80;;;12.70;99.90;;;;;;5012698;28;20673;-80
2022/11/09 10:22:45;;;;;;;12.85;3.63;;;12.80;99.90;;;;;;5012455;28;20364;-80
2022/11/09 10:25:37;;;;;;;15.63;3.73;;;12.80;99.90;;;;;;5012403;28;20528;-78
2022/11/09 10:28:09;;;;;;;11.60;2.97;;;12.90;99.90;;;;;;5011309;28;20288;-80
2022/11/09 10:30:35;;;;;;;18.97;4.10;;;12.90;99.90;;;;;;5013868;28;20327;-78
2022/11/09 10:33:10;;;;;;;11.83;3.50;;;12.90;99.90;;;;;;5014055;28;20289;-82
2022/11/09 10:35:47;;;;;;;13.95;3.55;;;13.00;99.90;;;;;;5012496;28;20042;-77
2022/11/09 10:38:19;;;;;;;12.30;3.80;;;13.00;99.90;;;;;;5013395;28;20054;-80
2022/11/09 10:40:52;;;;;;;16.13;3.23;;;13.10;99.90;;;;;;5014232;28;20280;-81
2022/11/09 10:43:18;;;;;;;13.63;3.80;;;13.10;99.90;;;;;;5013451;28;20288;-82
2022/11/09 10:45:44;;;;;;;10.77;3.03;;;13.10;99.90;;;;;;5012181;28;20293;-87
2022/11/09 10:48:12;;;;;;;18.10;4.17;;;13.10;99.90;;;;;;4996081;28;20080;-83
2022/11/09 10:50:39;;;;;;;12.70;3.77;;;13.10;99.90;;;;;;5012046;28;20288;-82
2022/11/09 10:53:17;;;;;;;14.40;3.17;;;13.10;99.90;;;;;;5012483;28;20319;-79
2022/11/09 10:56:13;;;;;;;11.83;3.20;;;13.10;99.90;;;;;;5013289;28;20297;-80
2022/11/09 10:58:46;;;;;;;14.43;3.30;;;13.10;99.90;;;;;;5013385;28;20284;-78
2022/11/09 11:01:20;;;;;;;14.30;3.20;;;13.20;99.90;;;;;;5013269;28;20289;-79
2022/11/09 11:03:49;;;;;;;13.63;3.30;;;13.20;99.90;;;;;;5014022;28;20373;-79
2022/11/09 11:06:26;;;;;;;12.90;4.07;;;13.20;99.90;;;;;;5017252;28;20038;-81
2022/11/09 11:09:15;;;;;;;12.30;3.20;;;13.20;99.90;;;;;;5017495;28;20288;-81
2022/11/09 11:11:40;;;;;;;14.00;3.80;;;13.20;99.90;;;;;;5015391;28;20297;-81
2022/11/09 11:14:16;;;;;;;14.40;3.33;;;13.20;99.90;;;;;;4999356;28;20293;-82
2022/11/09 11:16:44;;;;;;;13.27;3.30;;;13.20;99.90;;;;;;5016570;28;20042;-76
2022/11/09 11:19:36;;;;;;;14.37;4.20;;;13.20;99.90;;;;;;5016388;28;20284;-76
2022/11/09 11:22:21;;;;;;;12.90;3.80;;;13.20;99.90;;;;;;5016366;28;20330;-82
2022/11/09 11:24:59;;;;;;;17.95;4.57;;;13.20;99.90;;;;;;5015512;28;20301;-81
2022/11/09 11:27:39;;;;;;;11.90;2.70;;;13.20;99.90;;;;;;5016411;28;20049;-78
2022/11/09 11:30:05;;;;;;;14.00;3.57;;;13.30;99.90;;;;;;5016533;28;20273;-77
2022/11/09 11:32:31;;;;;;;12.07;3.00;;;13.30;99.90;;;;;;5014512;28;20300;-77
2022/11/09 11:34:57;;;;;;;13.77;3.33;;;13.30;99.90;;;;;;5015048;28;20316;-76
2022/11/09 11:37:44;;;;;;;14.80;3.00;;;13.40;99.90;;;;;;5015197;28;20077;-76
2022/11/09 11:40:22;;;;;;;11.17;3.10;;;13.40;99.90;;;;;;5016144;28;20048;-76
2022/11/09 11:43:26;;;;;;;13.63;3.10;;;13.40;99.90;;;;;;5015987;28;20325;-75
2022/11/09 11:46:32;;;;;;;9.20;3.30;;;13.30;99.90;;;;;;5015819;28;20364;-75
2022/11/09 11:49:28;;;;;;;15.68;4.07;;;13.40;99.90;;;;;;5015947;28;20443;-76
2022/11/09 11:52:00;;;;;;;12.00;3.63;;;13.40;99.90;;;;;;5014589;28;20054;-76
2022/11/09 11:54:59;;;;;;;13.43;3.30;;;13.40;99.90;;;;;;5015068;28;20367;-76
2022/11/09 11:58:04;;;;;;;15.77;3.97;;;13.40;99.90;;;;;;5014557;28;20293;-79
2022/11/09 12:00:38;;;;;;;11.93;3.07;;;13.30;99.90;;;;;;5015304;28;20752;-77
2022/11/09 12:03:30;;;;;;;11.63;3.40;;;13.30;99.90;;;;;;5015376;28;20285;-80
2022/11/09 12:06:25;;;;;;;13.87;4.17;;;13.20;99.90;;;;;;5014509;28;20049;-77
2022/11/09 12:09:20;;;;;;;16.85;3.50;;;13.20;99.90;;;;;;4997440;28;20301;-79
2022/11/09 12:12:21;;;;;;;13.73;3.53;;;13.20;99.90;;;;;;5014720;28;20069;-80
2022/11/09 12:14:58;;;;;;;11.80;3.03;;;13.20;99.90;;;;;;5006989;28;20341;-80
2022/11/09 12:17:51;;;;;;;13.20;3.33;;;13.30;99.90;;;;;;5014031;28;20409;-80
2022/11/09 12:20:36;;;;;;;13.77;3.13;;;13.30;99.90;;;;;;5013103;28;20285;-80
2022/11/09 12:23:04;;;;;;;14.65;3.33;;;13.40;99.90;;;;;;5015072;28;20682;-80
2022/11/09 12:25:35;;;;;;;12.20;3.23;;;13.50;99.90;;;;;;5014648;28;20418;-81
2022/11/09 12:28:13;;;;;;;14.90;3.03;;;13.60;99.90;;;;;;5013542;28;20303;-81
2022/11/09 12:31:20;;;;;;;13.30;3.07;;;13.60;99.90;;;;;;5014984;28;20657;-82
2022/11/09 12:34:14;;;;;;;9.73;2.23;;;13.70;99.90;;;;;;5011970;28;20293;-81
2022/11/09 12:37:02;;;;;;;12.87;3.03;;;13.60;99.90;;;;;;4996320;28;20319;-80
2022/11/09 12:39:33;;;;;;;9.53;2.53;;;13.60;99.90;;;;;;5014203;28;20295;-80
2022/11/09 12:42:04;;;;;;;11.43;2.73;;;13.40;99.90;;;;;;4997322;28;20331;-81
2022/11/09 12:44:54;;;;;;;14.50;3.77;;;13.40;99.90;;;;;;5014558;28;20281;-81
2022/11/09 12:47:29;;;;;;;10.00;3.10;;;13.30;99.90;;;;;;5014805;28;20685;-81
2022/11/09 12:49:55;;;;;;;8.20;2.38;;;13.20;99.90;;;;;;5013367;28;20347;-79
2022/11/09 12:52:26;;;;;;;12.07;2.57;;;13.10;99.90;;;;;;5014264;28;20046;-80
2022/11/09 12:54:53;;;;;;;8.23;2.10;;;13.10;99.90;;;;;;5013771;28;20392;-81